createdAt,value
2019-04-29T00:01:34.234Z,99072.42
2019-04-29T00:04:02.993Z,99072.17
2019-04-29T00:06:31.190Z,99072.78
2019-04-29T00:08:59.393Z,99080.23
2019-04-29T00:11:27.591Z,99081.09
2019-04-29T00:13:56.360Z,99076.22
2019-04-29T00:16:42.650Z,99078.16
2019-04-29T00:19:30.852Z,99079.94
2019-04-29T00:22:00.026Z,99085.30
2019-04-29T00:24:28.288Z,99082.98
2019-04-29T00:26:56.496Z,99082.96
2019-04-29T00:29:24.695Z,99087.38
2019-04-29T00:31:53.199Z,99085.39
2019-04-29T00:34:22.075Z,99089.93
2019-04-29T00:37:07.250Z,99085.70
2019-04-29T00:39:53.449Z,99083.55
2019-04-29T00:42:26.265Z,99089.38
2019-04-29T00:44:54.525Z,99088.50
2019-04-29T00:47:23.402Z,99089.05
2019-04-29T00:49:52.265Z,99086.73
2019-04-29T00:52:21.037Z,99078.59
2019-04-29T00:54:54.620Z,99083.39
2019-04-29T00:57:22.828Z,99081.91
2019-04-29T00:59:51.047Z,99082.05
2019-04-29T01:02:19.229Z,99076.02
2019-04-29T01:04:47.443Z,99074.23
2019-04-29T01:07:15.639Z,99081.91
2019-04-29T01:09:44.083Z,99075.95
2019-04-29T01:12:12.745Z,99084.95
2019-04-29T01:14:40.949Z,99081.49
2019-04-29T01:17:09.713Z,99089.17
2019-04-29T01:19:38.490Z,99088.66
2019-04-29T01:22:06.684Z,99089.79
2019-04-29T01:24:35.639Z,99087.23
2019-04-29T01:27:05.844Z,99085.41
2019-04-29T01:29:34.659Z,99083.98
2019-04-29T01:32:03.037Z,99082.09
2019-04-29T01:34:38.646Z,99086.28
2019-04-29T01:37:07.617Z,99082.24
2019-04-29T01:39:43.396Z,99086.08
2019-04-29T01:42:16.946Z,99082.48
2019-04-29T01:44:45.150Z,99084.73
2019-04-29T01:47:13.341Z,99083.34
2019-04-29T01:49:41.799Z,99081.08
2019-04-29T01:52:10.072Z,99089.56
2019-04-29T01:54:38.476Z,99084.18
2019-04-29T01:57:06.844Z,99088.46
2019-04-29T01:59:35.099Z,99077.39
2019-04-29T02:02:03.283Z,99085.27
2019-04-29T02:04:32.235Z,99093.47
2019-04-29T02:07:00.654Z,99089.48
2019-04-29T02:09:30.775Z,99090.16
2019-04-29T02:11:58.972Z,99087.32
2019-04-29T02:14:27.742Z,99084.79
2019-04-29T02:16:55.942Z,99083.45
2019-04-29T02:19:24.150Z,99081.47
2019-04-29T02:22:09.037Z,99084.77
2019-04-29T02:24:45.182Z,99081.45
2019-04-29T02:27:14.151Z,99091.23
2019-04-29T02:29:42.348Z,99085.51
2019-04-29T02:32:10.548Z,99084.25
2019-04-29T02:34:38.749Z,99084.52
2019-04-29T02:37:08.595Z,99076.05
2019-04-29T02:39:38.778Z,99075.49
2019-04-29T02:42:08.615Z,99073.67
2019-04-29T02:48:05.388Z,99070.19
2019-04-29T02:50:34.069Z,99073.26
2019-04-29T02:53:02.773Z,99066.94
2019-04-29T02:55:33.423Z,99070.48
2019-04-29T02:58:12.490Z,99071.05
2019-04-29T03:00:43.603Z,99067.45
2019-04-29T03:03:14.212Z,99065.54
2019-04-29T03:05:49.716Z,99067.94
2019-04-29T03:08:17.917Z,99062.48
2019-04-29T03:10:46.121Z,99064.86
2019-04-29T03:13:14.314Z,99061.48
2019-04-29T03:15:42.995Z,99072.27
2019-04-29T03:18:11.191Z,99064.54
2019-04-29T03:20:41.040Z,99065.74
2019-04-29T03:23:14.320Z,99060.83
2019-04-29T03:25:42.553Z,99060.50
2019-04-29T03:28:10.746Z,99055.70
2019-04-29T03:30:39.735Z,99061.13
2019-04-29T03:33:08.140Z,99066.20
2019-04-29T03:35:36.398Z,99059.14
2019-04-29T03:38:04.592Z,99061.47
2019-04-29T03:40:33.485Z,99059.78
2019-04-29T03:43:02.332Z,99055.60
2019-04-29T03:45:30.614Z,99057.63
2019-04-29T03:47:58.818Z,99068.10
2019-04-29T03:50:27.015Z,99070.16
2019-04-29T03:52:55.321Z,99065.24
2019-04-29T03:55:38.125Z,99061.84
2019-04-29T03:57:53.441Z,99065.89
2019-04-29T04:00:21.968Z,99064.88
2019-04-29T04:03:00.894Z,99061.81
2019-04-29T04:05:42.960Z,99067.08
2019-04-29T04:08:21.812Z,99075.46
2019-04-29T04:10:50.028Z,99073.32
2019-04-29T04:13:18.213Z,99073.20
2019-04-29T04:15:46.418Z,99067.38
2019-04-29T04:18:25.394Z,99068.47
2019-04-29T04:20:53.569Z,99067.08
2019-04-29T04:23:23.334Z,99066.45
2019-04-29T04:25:51.539Z,99072.36
2019-04-29T04:28:19.730Z,99071.66
2019-04-29T04:30:47.944Z,99075.28
2019-04-29T04:33:16.158Z,99075.34
2019-04-29T04:35:44.360Z,99077.64
2019-04-29T04:38:12.584Z,99079.33
2019-04-29T04:40:42.985Z,99077.61
2019-04-29T04:43:10.536Z,99077.63
2019-04-29T04:45:38.688Z,99082.57
2019-04-29T04:48:06.878Z,99081.94
2019-04-29T04:50:35.087Z,99080.30
2019-04-29T04:53:03.302Z,99082.53
2019-04-29T04:55:33.809Z,99090.28
2019-04-29T04:58:02.010Z,99087.00
2019-04-29T05:00:31.855Z,99082.68
2019-04-29T05:03:00.050Z,99075.58
2019-04-29T05:05:29.041Z,99079.34
2019-04-29T05:07:57.710Z,99078.14
2019-04-29T05:10:25.918Z,99083.91
2019-04-29T05:12:54.882Z,99083.61
2019-04-29T05:15:23.759Z,99085.16
2019-04-29T05:17:53.222Z,99094.12
2019-04-29T05:20:21.551Z,99100.05
2019-04-29T05:23:01.793Z,99105.77
2019-04-29T05:25:30.626Z,99105.11
2019-04-29T05:27:58.824Z,99100.56
2019-04-29T05:30:27.033Z,99103.57
2019-04-29T05:32:56.001Z,99110.71
2019-04-29T05:35:26.470Z,99109.20
2019-04-29T05:38:11.624Z,99108.86
2019-04-29T05:40:41.469Z,99107.85
2019-04-29T05:43:11.307Z,99116.15
2019-04-29T05:45:50.280Z,99116.66
2019-04-29T05:48:19.846Z,99117.66
2019-04-29T05:51:05.709Z,99117.00
2019-04-29T05:53:41.524Z,99118.88
2019-04-29T05:56:09.733Z,99112.61
2019-04-29T05:58:39.532Z,99114.48
2019-04-29T06:01:09.555Z,99114.30
2019-04-29T06:03:39.684Z,99117.03
2019-04-29T06:06:07.748Z,99126.48
2019-04-29T06:08:39.234Z,99126.48
2019-04-29T06:11:06.686Z,99125.48
2019-04-29T06:13:34.884Z,99122.09
2019-04-29T06:16:03.865Z,99128.53
2019-04-29T06:18:32.625Z,99125.80
2019-04-29T06:21:08.715Z,99130.86
2019-04-29T06:23:31.581Z,99131.34
2019-04-29T06:25:59.737Z,99135.58
2019-04-29T06:28:28.496Z,99131.36
2019-04-29T06:30:57.264Z,99135.57
2019-04-29T06:33:29.074Z,99135.23
2019-04-29T06:35:57.013Z,99139.31
2019-04-29T06:38:25.384Z,99129.64
2019-04-29T06:40:53.581Z,99129.45
2019-04-29T06:43:24.609Z,99129.11
2019-04-29T06:45:53.180Z,99126.86
2019-04-29T06:48:21.648Z,99120.22
2019-04-29T06:50:50.416Z,99117.84
2019-04-29T06:53:21.531Z,99129.03
2019-04-29T06:55:48.547Z,99133.09
2019-04-29T06:58:16.859Z,99131.53
2019-04-29T07:00:45.821Z,99135.79
2019-04-29T07:03:14.029Z,99138.50
2019-04-29T07:05:42.219Z,99146.02
2019-04-29T07:08:10.747Z,99149.44
2019-04-29T07:10:38.945Z,99155.17
2019-04-29T07:13:07.406Z,99152.80
2019-04-29T07:15:35.597Z,99155.80
2019-04-29T07:18:03.970Z,99154.81
2019-04-29T07:20:32.517Z,99146.92
2019-04-29T07:23:02.668Z,99151.94
2019-04-29T07:25:30.866Z,99152.30
2019-04-29T07:27:59.844Z,99153.48
2019-04-29T07:30:29.357Z,99160.23
2019-04-29T07:32:57.971Z,99155.32
2019-04-29T07:35:26.734Z,99155.78
2019-04-29T07:37:54.933Z,99153.38
2019-04-29T07:40:23.128Z,99144.74
2019-04-29T07:42:51.996Z,99146.22
2019-04-29T07:45:23.823Z,99151.50
2019-04-29T07:47:56.549Z,99146.25
2019-04-29T07:50:26.622Z,99152.39
2019-04-29T07:52:53.590Z,99149.06
2019-04-29T07:55:26.140Z,99144.34
2019-04-29T07:57:52.129Z,99152.38
2019-04-29T08:00:32.773Z,99147.37
2019-04-29T08:03:01.626Z,99145.98
2019-04-29T08:05:29.827Z,99148.30
2019-04-29T08:07:58.030Z,99143.60
2019-04-29T08:10:28.587Z,99143.12
2019-04-29T08:12:58.194Z,99149.53
2019-04-29T08:15:26.704Z,99142.41
2019-04-29T08:18:05.905Z,99140.14
2019-04-29T08:20:24.845Z,99146.17
2019-04-29T08:22:53.054Z,99135.95
2019-04-29T08:25:21.767Z,99141.05
2019-04-29T08:27:51.989Z,99142.08
2019-04-29T08:30:20.188Z,99132.87
2019-04-29T08:32:48.399Z,99139.23
2019-04-29T08:35:16.606Z,99138.08
2019-04-29T08:37:45.495Z,99145.58
2019-04-29T08:40:16.376Z,99146.08
2019-04-29T08:42:57.326Z,99147.95
2019-04-29T08:45:27.168Z,99151.80
2019-04-29T08:47:56.982Z,99150.25
2019-04-29T08:50:25.183Z,99152.12
2019-04-29T08:52:54.165Z,99154.33
2019-04-29T08:55:22.411Z,99149.55
2019-04-29T08:57:50.610Z,99152.15
2019-04-29T09:00:19.679Z,99136.14
2019-04-29T09:02:49.370Z,99144.06
2019-04-29T09:05:17.631Z,99144.53
2019-04-29T09:07:45.844Z,99142.48
2019-04-29T09:10:14.514Z,99134.50
2019-04-29T09:12:42.806Z,99140.37
2019-04-29T09:15:11.183Z,99129.66
2019-04-29T09:17:39.377Z,99125.02
2019-04-29T09:20:07.759Z,99124.63
2019-04-29T09:22:38.366Z,99134.03
2019-04-29T09:25:11.326Z,99145.14
2019-04-29T09:27:45.005Z,99127.32
2019-04-29T09:30:12.966Z,99141.04
2019-04-29T09:32:41.249Z,99133.20
2019-04-29T09:35:09.426Z,99135.17
2019-04-29T09:37:37.622Z,99133.67
2019-04-29T09:40:07.268Z,99137.48
2019-04-29T09:42:45.596Z,99130.45
2019-04-29T09:45:32.858Z,99124.94
2019-04-29T09:48:01.092Z,99130.81
2019-04-29T09:50:29.289Z,99124.41
2019-04-29T09:52:57.482Z,99129.34
2019-04-29T09:55:25.861Z,99130.81
2019-04-29T09:57:54.054Z,99124.66
2019-04-29T10:00:41.975Z,99132.63
2019-04-29T10:03:28.231Z,99133.20
2019-04-29T10:05:58.065Z,99133.38
2019-04-29T10:08:26.330Z,99131.05
2019-04-29T10:10:55.498Z,99130.09
2019-04-29T10:13:23.692Z,99133.09
2019-04-29T10:15:55.852Z,99133.25
2019-04-29T10:18:31.450Z,99125.97
2019-04-29T10:21:03.726Z,99125.86
2019-04-29T10:23:31.920Z,99134.14
2019-04-29T10:26:00.417Z,99127.27
2019-04-29T10:28:28.610Z,99127.52
2019-04-29T10:30:57.085Z,99119.50
2019-04-29T10:33:25.443Z,99117.86
2019-04-29T10:35:53.733Z,99114.45
2019-04-29T10:38:21.919Z,99112.42
2019-04-29T10:40:56.473Z,99115.89
2019-04-29T10:43:35.799Z,99116.84
2019-04-29T10:46:05.731Z,99113.59
2019-04-29T10:48:35.564Z,99109.48
2019-04-29T10:51:05.136Z,99102.38
2019-04-29T10:53:34.095Z,99112.39
2019-04-29T10:56:05.678Z,99102.12
2019-04-29T10:58:35.592Z,99107.03
2019-04-29T11:01:16.111Z,99106.63
2019-04-29T11:03:44.468Z,99102.67
2019-04-29T11:06:12.672Z,99102.31
2019-04-29T11:08:48.485Z,99096.23
2019-04-29T11:11:24.159Z,99095.95
2019-04-29T11:13:50.340Z,99096.80
2019-04-29T11:16:17.506Z,99102.05
2019-04-29T11:18:45.695Z,99101.08
2019-04-29T11:21:13.893Z,99097.02
2019-04-29T11:23:44.491Z,99102.09
2019-04-29T11:26:17.224Z,99098.05
2019-04-29T11:28:46.969Z,99089.73
2019-04-29T11:31:19.102Z,99082.78
2019-04-29T11:33:56.525Z,99082.50
2019-04-29T11:36:26.369Z,99088.89
2019-04-29T11:38:54.560Z,99076.36
2019-04-29T11:41:23.087Z,99071.43
2019-04-29T11:43:52.869Z,99074.33
2019-04-29T11:46:22.553Z,99068.26
2019-04-29T11:48:52.620Z,99064.52
2019-04-29T11:51:25.176Z,99058.41
2019-04-29T11:53:53.370Z,99054.00
2019-04-29T11:56:21.745Z,99051.76
2019-04-29T11:58:52.149Z,99050.84
2019-04-29T12:01:21.340Z,99059.42
2019-04-29T12:03:56.690Z,99060.98
2019-04-29T12:06:24.737Z,99052.85
2019-04-29T12:08:55.195Z,99058.30
2019-04-29T12:11:24.170Z,99061.31
2019-04-29T12:13:54.039Z,99057.34
2019-04-29T12:16:32.794Z,99057.14
2019-04-29T12:19:21.396Z,99056.30
2019-04-29T12:21:49.517Z,99058.47
2019-04-29T12:24:17.713Z,99056.09
2019-04-29T12:26:46.490Z,99052.00
2019-04-29T12:29:18.139Z,99046.58
2019-04-29T12:31:51.707Z,99045.22
2019-04-29T12:34:39.539Z,99037.84
2019-04-29T12:37:14.894Z,99032.92
2019-04-29T12:39:50.568Z,99032.55
2019-04-29T12:42:40.210Z,99023.91
2019-04-29T12:45:24.273Z,99019.33
2019-04-29T12:47:52.469Z,99019.95
2019-04-29T12:50:21.982Z,99009.91
2019-04-29T12:52:51.381Z,99006.89
2019-04-29T12:55:44.238Z,99005.14
2019-04-29T12:58:06.161Z,99004.16
2019-04-29T13:00:47.435Z,98999.64
2019-04-29T13:03:15.654Z,98998.77
2019-04-29T13:06:02.621Z,98997.78
2019-04-29T13:08:32.609Z,99004.18
2019-04-29T13:11:02.458Z,98994.41
2019-04-29T13:13:30.653Z,98988.66
2019-04-29T13:16:03.210Z,98980.84
2019-04-29T13:18:48.846Z,98978.66
2019-04-29T13:21:18.543Z,98973.17
2019-04-29T13:23:59.082Z,98974.73
2019-04-29T13:26:27.295Z,98969.83
2019-04-29T13:28:59.021Z,98967.22
2019-04-29T13:31:20.116Z,98971.86
2019-04-29T13:33:51.009Z,98970.64
2019-04-29T13:36:19.751Z,98963.95
2019-04-29T13:38:48.525Z,98966.47
2019-04-29T13:41:23.645Z,98969.06
2019-04-29T13:43:46.841Z,98973.91
2019-04-29T13:46:17.457Z,98971.57
2019-04-29T13:48:56.020Z,98968.98
2019-04-29T13:51:34.785Z,98974.59
2019-04-29T13:53:50.006Z,98975.95
2019-04-29T13:58:48.138Z,98975.80
2019-04-29T14:01:24.644Z,98962.27
2019-04-29T14:03:49.829Z,98966.27
2019-04-29T14:06:18.683Z,98961.22
2019-04-29T14:08:48.016Z,98962.52
2019-04-29T14:11:16.271Z,98960.23
2019-04-29T14:13:48.365Z,98952.42
2019-04-29T14:16:14.425Z,98962.89
2019-04-29T14:18:43.573Z,98958.82
2019-04-29T14:21:12.580Z,98952.11
2019-04-29T14:23:40.760Z,98954.98
2019-04-29T14:26:08.957Z,98949.71
2019-04-29T14:28:37.165Z,98955.77
2019-04-29T14:31:05.357Z,98950.02
2019-04-29T14:33:38.172Z,98950.22
2019-04-29T14:36:08.014Z,98953.77
2019-04-29T14:38:40.857Z,98948.36
2019-04-29T14:41:06.137Z,98942.64
2019-04-29T14:43:39.588Z,98946.05
2019-04-29T14:46:15.692Z,98951.09
2019-04-29T14:48:42.610Z,98953.33
2019-04-29T14:51:11.294Z,98953.89
2019-04-29T14:53:39.498Z,98952.20
2019-04-29T14:56:07.692Z,98959.30
2019-04-29T14:58:36.130Z,98951.35
2019-04-29T15:01:07.719Z,98953.16
2019-04-29T15:03:55.116Z,98951.80
2019-04-29T15:06:23.349Z,98959.72
2019-04-29T15:08:51.537Z,98951.69
2019-04-29T15:11:31.502Z,98951.71
2019-04-29T15:13:54.611Z,98937.52
2019-04-29T15:16:25.168Z,98935.66
2019-04-29T15:18:55.607Z,98938.17
2019-04-29T15:21:45.556Z,98943.42
2019-04-29T15:24:17.141Z,98947.80
2019-04-29T15:26:44.654Z,98953.91
2019-04-29T15:29:13.631Z,98955.27
2019-04-29T15:31:42.564Z,98955.44
2019-04-29T15:34:14.397Z,98957.29
2019-04-29T15:36:42.117Z,98957.63
2019-04-29T15:39:11.798Z,98966.09
2019-04-29T15:41:40.402Z,98966.43
2019-04-29T15:44:13.798Z,98970.17
2019-04-29T15:46:46.154Z,98961.86
2019-04-29T15:49:09.125Z,98966.74
2019-04-29T15:51:37.326Z,98959.66
2019-04-29T15:54:09.207Z,98964.55
2019-04-29T15:56:38.733Z,98957.29
2019-04-29T15:59:08.875Z,98959.49
2019-04-29T16:01:35.325Z,98956.30
2019-04-29T16:04:05.142Z,98960.67
2019-04-29T16:06:40.199Z,98961.33
2019-04-29T16:09:14.314Z,98954.90
2019-04-29T16:11:47.120Z,98957.34
2019-04-29T16:14:23.585Z,98951.59
2019-04-29T16:16:51.781Z,98954.30
2019-04-29T16:19:20.311Z,98951.78
2019-04-29T16:21:48.506Z,98945.70
2019-04-29T16:24:26.463Z,98945.50
2019-04-29T16:26:53.271Z,98946.38
2019-04-29T16:29:17.333Z,98944.34
2019-04-29T16:31:46.101Z,98953.97
2019-04-29T16:34:14.316Z,98952.94
2019-04-29T16:36:43.660Z,98947.68
2019-04-29T16:39:12.445Z,98949.53
2019-04-29T16:41:45.284Z,98955.31
2019-04-29T16:46:47.731Z,98948.56
2019-04-29T16:49:16.206Z,98951.92
2019-04-29T16:51:47.927Z,98953.62
2019-04-29T16:54:20.443Z,98950.91
2019-04-29T16:56:44.275Z,98943.88
2019-04-29T16:59:12.462Z,98946.36
2019-04-29T17:01:40.673Z,98952.08
2019-04-29T17:04:08.867Z,98954.59
2019-04-29T17:06:41.694Z,98956.92
2019-04-29T17:09:08.639Z,98964.52
2019-04-29T17:11:38.817Z,98957.20
2019-04-29T17:14:10.107Z,98953.48
2019-04-29T17:16:38.240Z,98948.23
2019-04-29T17:19:07.014Z,98950.97
2019-04-29T17:21:35.219Z,98944.54
2019-04-29T17:24:03.431Z,98950.73
2019-04-29T17:26:33.266Z,98953.98
2019-04-29T17:29:11.536Z,98958.36
2019-04-29T17:31:44.238Z,98961.41
2019-04-29T17:34:29.414Z,98955.67
2019-04-29T17:35:19.043Z,98956.47
2019-04-29T17:36:47.769Z,98958.69
2019-04-29T17:39:16.249Z,98955.67
2019-04-29T17:41:44.872Z,98961.44
2019-04-29T17:44:18.628Z,98959.60
2019-04-29T17:46:49.109Z,98958.42
2019-04-29T17:49:22.217Z,98959.47
2019-04-29T17:51:50.028Z,98956.39
2019-04-29T17:54:28.948Z,98958.08
2019-04-29T17:57:28.209Z,98963.97
2019-04-29T18:00:08.507Z,98965.42
2019-04-29T18:02:47.046Z,98972.02
2019-04-29T18:05:52.294Z,98974.92
2019-04-29T18:08:06.567Z,98975.13
2019-04-29T18:10:38.571Z,98969.06
2019-04-29T18:13:06.607Z,98973.29
2019-04-29T18:15:51.660Z,98973.80
2019-04-29T18:18:12.377Z,98978.14
2019-04-29T18:20:47.160Z,98973.09
2019-04-29T18:23:31.601Z,98980.23
2019-04-29T18:26:01.444Z,98984.97
2019-04-29T18:28:29.813Z,98980.95
2019-04-29T18:30:58.079Z,98989.89
2019-04-29T18:33:30.221Z,98984.30
2019-04-29T18:36:04.176Z,98975.80
2019-04-29T18:38:26.944Z,98987.70
2019-04-29T18:40:55.866Z,98978.58
2019-04-29T18:43:26.536Z,98989.39
2019-04-29T18:45:59.152Z,98993.28
2019-04-29T18:48:27.578Z,98998.02
2019-04-29T18:50:57.153Z,98994.48
2019-04-29T18:53:27.334Z,98996.16
2019-04-29T18:55:55.692Z,98999.06
2019-04-29T18:58:24.971Z,98997.03
2019-04-29T19:00:56.156Z,98999.91
2019-04-29T19:03:25.249Z,99001.95
2019-04-29T19:05:57.994Z,99006.67
2019-04-29T19:08:28.687Z,99007.86
2019-04-29T19:10:56.120Z,99007.19
2019-04-29T19:13:26.047Z,99011.75
2019-04-29T19:16:02.885Z,99017.02
2019-04-29T19:18:25.500Z,99016.84
2019-04-29T19:20:54.871Z,99013.80
2019-04-29T19:23:24.955Z,99014.12
2019-04-29T19:25:53.664Z,99024.58
2019-04-29T19:28:30.031Z,99023.92
2019-04-29T19:30:56.168Z,99023.92
2019-04-29T19:33:21.978Z,99031.36
2019-04-29T19:35:50.756Z,99018.49
2019-04-29T19:38:19.726Z,99022.91
2019-04-29T19:40:47.926Z,99016.84
2019-04-29T19:43:18.831Z,99023.60
2019-04-29T19:45:49.014Z,99026.66
2019-04-29T19:48:17.481Z,99022.59
2019-04-29T19:50:50.102Z,99023.61
2019-04-29T19:53:16.789Z,99023.60
2019-04-29T19:55:45.797Z,99023.60
2019-04-29T19:58:14.996Z,99029.03
2019-04-29T20:00:44.659Z,99027.14
2019-04-29T20:03:21.235Z,99031.39
2019-04-29T20:06:07.555Z,99030.71
2019-04-29T20:08:43.469Z,99028.00
2019-04-29T20:11:00.999Z,99024.13
2019-04-29T20:13:31.302Z,99031.92
2019-04-29T20:16:10.122Z,99032.77
2019-04-29T20:18:37.313Z,99042.23
2019-04-29T20:21:08.908Z,99035.27
2019-04-29T20:23:38.494Z,99033.61
2019-04-29T20:26:13.981Z,99029.55
2019-04-29T20:28:35.954Z,99033.78
2019-04-29T20:31:17.900Z,99034.08
2019-04-29T20:33:34.647Z,99034.42
2019-04-29T20:36:03.162Z,99036.47
2019-04-29T20:38:34.990Z,99035.41
2019-04-29T20:41:05.479Z,99039.01
2019-04-29T20:43:32.600Z,99041.02
2019-04-29T20:46:02.331Z,99040.17
2019-04-29T20:48:31.538Z,99047.97
2019-04-29T20:51:10.776Z,99045.94
2019-04-29T20:53:38.741Z,99052.02
2019-04-29T20:56:11.880Z,99049.00
2019-04-29T20:58:36.041Z,99043.23
2019-04-29T21:01:10.931Z,99041.19
2019-04-29T21:03:40.953Z,99037.45
2019-04-29T21:06:07.316Z,99034.08
2019-04-29T21:08:35.578Z,99038.50
2019-04-29T21:11:05.893Z,99045.41
2019-04-29T21:13:35.197Z,99037.67
2019-04-29T21:16:16.973Z,99037.13
2019-04-29T21:18:52.645Z,99042.54
2019-04-29T21:21:15.244Z,99040.13
2019-04-29T21:23:43.565Z,99034.39
2019-04-29T21:26:11.835Z,99036.97
2019-04-29T21:28:42.440Z,99035.78
2019-04-29T21:31:11.660Z,99032.94
2019-04-29T21:33:40.981Z,99025.61
2019-04-29T21:36:15.321Z,99032.70
2019-04-29T21:39:06.106Z,99027.97
2019-04-29T21:44:27.864Z,99025.30
2019-04-29T21:46:55.340Z,99034.12
2019-04-29T21:49:25.680Z,99021.44
2019-04-29T21:51:55.395Z,99031.27
2019-04-29T21:54:23.462Z,99032.13
2019-04-29T21:56:51.931Z,99033.84
2019-04-29T21:59:20.143Z,99033.16
2019-04-29T22:01:48.375Z,99033.50
2019-04-29T22:04:16.614Z,99031.63
2019-04-29T22:06:45.836Z,99033.48
2019-04-29T22:09:15.868Z,99030.11
2019-04-29T22:11:44.691Z,99030.13
2019-04-29T22:14:15.521Z,99034.38
2019-04-29T22:16:47.574Z,99034.88
2019-04-29T22:19:14.934Z,99037.23
2019-04-29T22:21:45.786Z,99040.63
2019-04-29T22:24:14.422Z,99045.70
2019-04-29T22:26:42.621Z,99041.61
2019-04-29T22:29:11.593Z,99044.34
2019-04-29T22:31:39.795Z,99035.52
2019-04-29T22:34:10.007Z,99042.63
2019-04-29T22:36:39.262Z,99040.09
2019-04-29T22:39:07.942Z,99034.17
2019-04-29T22:41:54.176Z,99031.81
2019-04-29T22:44:23.316Z,99036.88
2019-04-29T22:46:51.508Z,99038.91
2019-04-29T22:49:24.480Z,99042.98
2019-04-29T22:51:49.869Z,99051.42
2019-04-29T22:54:22.025Z,99041.94
2019-04-29T22:56:53.735Z,99044.48
2019-04-29T22:59:20.261Z,99050.05
2019-04-29T23:01:50.506Z,99044.31
2019-04-29T23:04:18.287Z,99052.44
2019-04-29T23:06:48.125Z,99053.77
2019-04-29T23:09:16.387Z,99050.08
2019-04-29T23:11:44.999Z,99049.20
2019-04-29T23:14:15.566Z,99047.02
2019-04-29T23:16:45.445Z,99044.32
2019-04-29T23:19:17.712Z,99042.61
2019-04-29T23:21:49.897Z,99040.27
2019-04-29T23:24:19.746Z,99041.59
2019-04-29T23:26:47.946Z,99036.70
2019-04-29T23:29:16.154Z,99032.63
2019-04-29T23:31:45.384Z,99032.47
2019-04-29T23:34:15.529Z,99032.50
2019-04-29T23:36:44.622Z,99035.53
2019-04-29T23:39:12.879Z,99036.20
2019-04-29T23:41:41.069Z,99038.58
2019-04-29T23:44:09.539Z,99033.18
2019-04-29T23:46:37.732Z,99030.30
2019-04-29T23:49:06.743Z,99023.51
2019-04-29T23:51:37.820Z,99024.86
2019-04-29T23:54:08.000Z,99023.00
2019-04-29T23:56:56.142Z,99016.92
2019-04-29T23:59:28.127Z,99015.91
